Flight Track Log - Related Links

Times and Time Zones

All times are in EDT time to prevent confusion due to time zone crossing. See the N163CA flight status page for this flight to view local times or setup timezone preferences in your user account.

Time Position Orientation Groundspeed Altitude Reporting Facility
EDT Latitude Longitude Course Direction KTS MPH feet Rate Location/Type
Sun 06:44:48 PM 30.0056 -81.4222 280° West 106 122 2,000  Level Jacksonville Center
Sun 06:45:49 PM 30.0058 -81.4558 271° West 105 121 2,600 639 Climbing Jacksonville Center
Sun 06:46:50 PM 30.0042 -81.4894 267° West 109 125 3,300 639 Climbing Jacksonville Center
Sun 06:47:51 PM 30.0067 -81.5253 275° West 111 128 3,900 639 Climbing Jacksonville Center
Sun 06:48:52 PM 30.0111 -81.5614 278° West 111 128 4,600 689 Climbing Jacksonville Center
Sun 06:49:00 PM 30.0049 -81.6406 280° West  Level FlightAware Approximate
Sun 06:49:53 PM 30.0156 -81.5947 279° West 111 128 5,300  Level Jacksonville Center
Sun 06:50:00 PM 30.0124 -81.6908 280° West  Level FlightAware Approximate
Sun 06:50:54 PM 30.0203 -81.6331 278° West 110 127 5,900  Level Jacksonville Center
Sun 06:51:19 PM 30.0203 -81.6475 270° West 111 128 6,000  Climbing Jacksonville Center
Sun 06:51:55 PM 30.0289 -81.6689 295° West 128 147 5,900 -100 Descending Jacksonville Center
Sun 06:52:19 PM 30.0333 -81.6881 285° West 126 145 5,900 98 Level Jacksonville Center
Sun 06:52:56 PM 30.0397 -81.7097 289° West 127 146 6,000  Climbing Jacksonville Center
Sun 06:53:19 PM 30.0483 -81.7286 298° West 134 154 5,900 -98 Descending Jacksonville Center
Sun 06:53:57 PM 30.0506 -81.7528 276° West 136 157 5,900  Level Jacksonville Center
Sun 06:54:19 PM 30.0592 -81.7719 297° West 139 160 5,900  Level Jacksonville Center
Sun 06:54:58 PM 30.0592 -81.7958 270° West 135 155 5,900  Level Jacksonville Center
Sun 06:55:19 PM 30.0614 -81.8125 279° West 139 160 5,900  Level Jacksonville Center
Sun 06:55:58 PM 30.0658 -81.8367 282° West 133 153 5,900  Level Jacksonville Center
Sun 06:56:19 PM 30.0703 -81.8533 287° West 132 152 5,900  Level Jacksonville Center
Sun 06:56:59 PM 30.0725 -81.8797 276° West 132 152 5,900  Level Jacksonville Center
Sun 06:57:19 PM 30.0725 -81.8964 270° West 137 158 5,900  Level Jacksonville Center
Sun 06:58:00 PM 30.0750 -81.9228 276° West 133 153 5,900  Level Jacksonville Center
Sun 06:58:19 PM 30.0814 -81.9372 297° West 131 151 5,900  Level Jacksonville Center
Sun 06:59:01 PM 30.0836 -81.9661 275° West 134 154 5,900  Level Jacksonville Center
Sun 06:59:19 PM 30.0878 -81.9781 292° West 131 151 5,900  Level Jacksonville Center
Sun 07:00:02 PM 30.0903 -82.0067 276° West 130 150 5,900  Level Jacksonville Center
Sun 07:00:19 PM 30.0922 -82.0211 279° West 131 151 5,900  Level Jacksonville Center
Sun 07:01:03 PM 30.0947 -82.0475 276° West 131 151 5,900  Level Jacksonville Center
Sun 07:01:19 PM 30.0989 -82.0692 283° West 131 151 5,900  Level Jacksonville Center
Sun 07:02:10 PM 30.1033 -82.0978 280° West 128 147 5,900  Level Jacksonville Center
Sun 07:02:19 PM 30.1075 -82.1025 316° Northwest 131 151 5,900 -87 Level Jacksonville Center
Sun 07:03:19 PM 30.1139 -82.1411 281° West 141 162 5,800  Descending Jacksonville Center
Sun 07:04:19 PM 30.1206 -82.1842 280° West 141 162 5,900 50 Climbing Jacksonville Center
Sun 07:05:19 PM 30.1206 -82.2225 270° West 141 162 5,900  Level Jacksonville Center
Sun 07:06:19 PM 30.1189 -82.2658 267° West 141 162 5,900  Level Jacksonville Center
Sun 07:07:19 PM 30.1275 -82.3067 284° West 141 162 5,900  Level Jacksonville Center
Sun 07:08:19 PM 30.1381 -82.3472 287° West 141 162 5,900 50 Level Jacksonville Center
Sun 07:09:19 PM 30.1444 -82.3858 281° West 136 157 6,000  Climbing Jacksonville Center
Sun 07:10:19 PM 30.1467 -82.4289 273° West 136 157 5,900 -50 Descending Jacksonville Center
Sun 07:11:19 PM 30.1489 -82.4722 273° West 136 157 5,900  Level Jacksonville Center
Sun 07:12:19 PM 30.1553 -82.5131 280° West 136 157 5,900  Level Jacksonville Center
Sun 07:13:19 PM 30.1639 -82.5539 284° West 141 162 5,900 50 Level Jacksonville Center
Sun 07:14:19 PM 30.1681 -82.5994 276° West 141 162 6,000  Climbing Jacksonville Center
Sun 07:15:19 PM 30.1744 -82.6403 280° West 141 162 5,900 -50 Descending Jacksonville Center
Sun 07:16:19 PM 30.1828 -82.6786 284° West 141 162 5,900  Level Jacksonville Center
Sun 07:17:19 PM 30.1869 -82.7219 276° West 141 162 5,900 50 Level Jacksonville Center
Sun 07:18:19 PM 30.1933 -82.7653 280° West 141 162 6,000  Climbing Jacksonville Center
Sun 07:19:19 PM 30.1975 -82.8083 276° West 141 162 5,900  Descending Jacksonville Center
Sun 07:20:19 PM 30.2039 -82.8494 280° West 141 162 6,000  Climbing Jacksonville Center
Sun 07:21:19 PM 30.2100 -82.8925 279° West 141 162 5,900 -50 Descending Jacksonville Center
Sun 07:22:19 PM 30.2144 -82.9358 277° West 141 162 5,900  Level Jacksonville Center
Sun 07:23:19 PM 30.2206 -82.9792 279° West 141 162 5,900  Level Jacksonville Center
Sun 07:24:19 PM 30.2267 -83.0225 279° West 141 162 5,900  Level Jacksonville Center
Sun 07:25:19 PM 30.2308 -83.0633 277° West 141 162 5,900  Level Jacksonville Center
Sun 07:26:19 PM 30.2350 -83.0994 278° West 141 162 5,900  Level Jacksonville Center
Sun 07:27:19 PM 30.2392 -83.1403 277° West 141 162 5,900  Level Jacksonville Center
Sun 07:28:19 PM 30.2475 -83.1786 284° West 141 162 5,900  Level Jacksonville Center
Sun 07:29:19 PM 30.2536 -83.2219 279° West 141 162 5,900  Level Jacksonville Center
Sun 07:30:19 PM 30.2597 -83.2606 280° West 141 162 5,900  Level Jacksonville Center
Sun 07:31:19 PM 30.2617 -83.3014 273° West 136 157 5,900  Level Jacksonville Center
Sun 07:32:19 PM 30.2658 -83.3400 277° West 136 157 5,900  Level Jacksonville Center
Sun 07:33:19 PM 30.2719 -83.3808 280° West 136 157 5,900  Level Jacksonville Center
Sun 07:34:19 PM 30.2758 -83.4217 276° West 136 157 5,900 50 Level Jacksonville Center
Sun 07:35:19 PM 30.2861 -83.4603 287° West 131 151 6,000  Climbing Jacksonville Center
Sun 07:36:19 PM 30.2964 -83.4989 287° West 126 145 5,900 -50 Descending Jacksonville Center
Sun 07:37:19 PM 30.3025 -83.5350 281° West 121 139 5,900  Level Jacksonville Center
Sun 07:38:19 PM 30.3044 -83.5736 273° West 121 139 5,900  Level Jacksonville Center
Sun 07:39:19 PM 30.3061 -83.6119 273° West 121 139 5,900  Level Jacksonville Center
Sun 07:40:19 PM 30.3103 -83.6506 277° West 121 139 5,900 -150 Level Jacksonville Center
Sun 07:41:19 PM 30.3142 -83.6867 277° West 121 139 5,600 -350 Descending Jacksonville Center
Sun 07:42:19 PM 30.3181 -83.7275 276° West 121 139 5,200 -400 Descending Jacksonville Center
Sun 07:44:00 PM 30.3249 -83.7964 277° West  Level FlightAware Approximate
Sun 07:51:00 PM 30.3554 -84.0826 281° West  Level FlightAware Approximate
Sun 07:52:00 PM 30.3622 -84.1231 281° West  Level FlightAware Approximate
Sun 07:53:00 PM 30.3667 -84.1638 270° West  Level FlightAware Approximate
Sun 07:54:00 PM 30.3667 -84.2050 270° West  Level FlightAware Approximate
Sun 07:55:00 PM 30.3751 -84.2417 319° Northwest  Level FlightAware Approximate
Sun 07:56:00 PM 30.3833 -84.2786 270° West  Level FlightAware Approximate
Sun 07:57:00 PM 30.3833 -84.3198 270° West  Level FlightAware Approximate
Sun 07:58:00 PM 30.3833 -84.3500 270° West  Level FlightAware Approximate
Sun 07:59:00 PM 30.3967 -84.3509 270° West  Level Estimated
Sun 08:00:00 PM 30.3967 -84.3509 270° West  Level Estimated
Sun 08:01:00 PM 30.3967 -84.3509 270° West  Level Estimated
Sun 08:02:00 PM 30.3967 -84.3509 270° West  Level Estimated
Sun 08:03:00 PM 30.3967 -84.3509 270° West  Level Estimated
Sun 08:04:00 PM 30.3967 -84.3509 270° West  Level Estimated
Sun 08:05:00 PM 30.3967 -84.3509 270° West  Level Estimated
Sun 08:06:00 PM 30.3967 -84.3509 270° West  Level Estimated
Sun 08:07:00 PM 30.3967 -84.3509 270° West  Level Estimated
Sun 08:08:00 PM 30.3967 -84.3509 270° West  Level Estimated

Login

Don't have an account? Register now (free) for customized features, flight alerts, and more!